BEL6KU EDDS-LIML
Flight info
| Callsign | BEL6KU |
|---|---|
| Flight time | 0h 47m |
| Altitude | 23000 |
| Route | ROTWE5B/25 ROTWE Y126 TUBLO N850 NATOR DCT TRA DCT RIPUS DCT GERSA DCT SOSON DCT ODINA |
| Aircraft | A320/M-SDE3FGHIRWY/LB1 |
Departure
| Time | 2026-02-19 13:52 |
|---|---|
| Airport | Stuttgart Airport (EDDS) |
Arrival
| Time | 2026-02-19 14:40 |
|---|---|
| Airport | Milano Linate Airport (LIML) |
| Time | Latitude | Longitude | Altitude | Speed | Heading |
|---|---|---|---|---|---|
| 2026-02-19 13:27 | 48.68927 | 9.19580 | 1286 ft | 0 kts | 345° |
| 2026-02-19 13:37 | 48.68918 | 9.19584 | 1286 ft | 2 kts | 344° |
| 2026-02-19 13:37 | 48.68902 | 9.19590 | 1286 ft | 2 kts | 345° |
| 2026-02-19 13:37 | 48.68887 | 9.19596 | 1288 ft | 2 kts | 346° |
| 2026-02-19 13:37 | 48.68871 | 9.19602 | 1287 ft | 2 kts | 349° |
| 2026-02-19 13:38 | 48.68854 | 9.19606 | 1285 ft | 2 kts | 15° |
| 2026-02-19 13:38 | 48.68844 | 9.19595 | 1286 ft | 1 kts | 76° |
| 2026-02-19 13:38 | 48.68844 | 9.19592 | 1286 ft | 0 kts | 74° |
| 2026-02-19 13:39 | 48.68847 | 9.19609 | 1291 ft | 3 kts | 74° |
| 2026-02-19 13:39 | 48.68851 | 9.19630 | 1289 ft | 2 kts | 74° |
| 2026-02-19 13:40 | 48.68857 | 9.19660 | 1287 ft | 3 kts | 74° |
| 2026-02-19 13:40 | 48.68859 | 9.19674 | 1286 ft | 0 kts | 74° |
| 2026-02-19 13:40 | 48.68861 | 9.19683 | 1288 ft | 3 kts | 74° |
| 2026-02-19 13:41 | 48.68865 | 9.19702 | 1288 ft | 1 kts | 73° |
| 2026-02-19 13:41 | 48.68865 | 9.19706 | 1287 ft | 0 kts | 74° |
| 2026-02-19 13:41 | 48.68866 | 9.19712 | 1287 ft | 0 kts | 74° |
| 2026-02-19 13:42 | 48.68870 | 9.19730 | 1285 ft | 6 kts | 74° |
| 2026-02-19 13:42 | 48.68882 | 9.19784 | 1286 ft | 5 kts | 69° |
| 2026-02-19 13:43 | 48.68893 | 9.19820 | 1287 ft | 4 kts | 63° |
| 2026-02-19 13:43 | 48.68915 | 9.19876 | 1287 ft | 8 kts | 57° |
| 2026-02-19 13:43 | 48.68945 | 9.19945 | 1285 ft | 8 kts | 58° |
| 2026-02-19 13:43 | 48.68976 | 9.20023 | 1288 ft | 10 kts | 62° |
| 2026-02-19 13:44 | 48.69005 | 9.20143 | 1288 ft | 16 kts | 73° |
| 2026-02-19 13:44 | 48.69032 | 9.20521 | 1285 ft | 19 kts | 132° |
| 2026-02-19 13:44 | 48.68937 | 9.20665 | 1285 ft | 20 kts | 134° |
| 2026-02-19 13:45 | 48.68908 | 9.20850 | 1288 ft | 20 kts | 75° |
| 2026-02-19 13:45 | 48.68947 | 9.21052 | 1285 ft | 20 kts | 74° |
| 2026-02-19 13:45 | 48.68986 | 9.21260 | 1285 ft | 20 kts | 74° |
| 2026-02-19 13:45 | 48.69013 | 9.21406 | 1285 ft | 6 kts | 73° |
| 2026-02-19 13:46 | 48.69026 | 9.21471 | 1285 ft | 6 kts | 74° |
| 2026-02-19 13:46 | 48.69038 | 9.21536 | 1286 ft | 7 kts | 73° |
| 2026-02-19 13:46 | 48.69040 | 9.21544 | 1285 ft | 8 kts | 73° |
| 2026-02-19 13:46 | 48.69054 | 9.21617 | 1288 ft | 10 kts | 74° |
| 2026-02-19 13:47 | 48.69071 | 9.21708 | 1285 ft | 12 kts | 74° |
| 2026-02-19 13:47 | 48.69078 | 9.21747 | 1288 ft | 12 kts | 74° |
| 2026-02-19 13:47 | 48.69106 | 9.21892 | 1285 ft | 17 kts | 74° |
| 2026-02-19 13:47 | 48.69146 | 9.22103 | 1285 ft | 24 kts | 74° |
| 2026-02-19 13:48 | 48.69194 | 9.22358 | 1288 ft | 25 kts | 74° |
| 2026-02-19 13:48 | 48.69254 | 9.22674 | 1288 ft | 25 kts | 74° |
| 2026-02-19 13:48 | 48.69302 | 9.22927 | 1285 ft | 25 kts | 74° |
| 2026-02-19 13:49 | 48.69350 | 9.23178 | 1285 ft | 25 kts | 73° |
| 2026-02-19 13:49 | 48.69397 | 9.23428 | 1286 ft | 25 kts | 74° |
| 2026-02-19 13:49 | 48.69444 | 9.23678 | 1287 ft | 25 kts | 74° |
| 2026-02-19 13:49 | 48.69492 | 9.23928 | 1285 ft | 25 kts | 74° |
| 2026-02-19 13:50 | 48.69538 | 9.24171 | 1287 ft | 22 kts | 74° |
| 2026-02-19 13:50 | 48.69520 | 9.24305 | 1285 ft | 12 kts | 152° |
| 2026-02-19 13:50 | 48.69490 | 9.24319 | 1285 ft | 0 kts | 167° |
| 2026-02-19 13:51 | 48.69489 | 9.24319 | 1285 ft | 2 kts | 167° |
| 2026-02-19 13:51 | 48.69462 | 9.24323 | 1285 ft | 6 kts | 180° |
| 2026-02-19 13:51 | 48.69412 | 9.24301 | 1287 ft | 9 kts | 208° |
| 2026-02-19 13:51 | 48.69371 | 9.24211 | 1285 ft | 12 kts | 252° |
| 2026-02-19 13:52 | 48.69337 | 9.24030 | 1285 ft | 41 kts | 254° |
| 2026-02-19 13:52 | 48.68879 | 9.21652 | 1332 ft | 177 kts | 254° |
| 2026-02-19 13:52 | 48.68538 | 9.19838 | 2112 ft | 176 kts | 252° |
| 2026-02-19 13:53 | 48.68218 | 9.18093 | 3111 ft | 173 kts | 252° |
| 2026-02-19 13:53 | 48.67862 | 9.16241 | 3462 ft | 195 kts | 253° |
| 2026-02-19 13:53 | 48.67480 | 9.14210 | 3918 ft | 208 kts | 253° |
| 2026-02-19 13:53 | 48.67066 | 9.11999 | 4317 ft | 230 kts | 253° |
| 2026-02-19 13:54 | 48.66609 | 9.09563 | 4814 ft | 249 kts | 253° |
| 2026-02-19 13:54 | 48.66121 | 9.06982 | 5676 ft | 254 kts | 253° |
| 2026-02-19 13:54 | 48.65634 | 9.04422 | 6541 ft | 257 kts | 253° |
| 2026-02-19 13:54 | 48.65134 | 9.01807 | 7375 ft | 261 kts | 253° |
| 2026-02-19 13:55 | 48.64625 | 8.99149 | 8194 ft | 266 kts | 253° |
| 2026-02-19 13:55 | 48.64101 | 8.96441 | 9004 ft | 270 kts | 253° |
| 2026-02-19 13:55 | 48.63566 | 8.93695 | 9786 ft | 275 kts | 252° |
| 2026-02-19 13:55 | 48.63007 | 8.90837 | 10147 ft | 295 kts | 252° |
| 2026-02-19 13:56 | 48.62382 | 8.87751 | 10353 ft | 318 kts | 249° |
| 2026-02-19 13:56 | 48.60004 | 8.81760 | 11213 ft | 343 kts | 228° |
| 2026-02-19 13:56 | 48.58382 | 8.79095 | 11919 ft | 347 kts | 227° |
| 2026-02-19 13:57 | 48.56741 | 8.76393 | 12628 ft | 350 kts | 227° |
| 2026-02-19 13:57 | 48.55092 | 8.73670 | 13342 ft | 354 kts | 228° |
| 2026-02-19 13:57 | 48.53427 | 8.70912 | 13968 ft | 357 kts | 228° |
| 2026-02-19 13:57 | 48.51936 | 8.67896 | 14558 ft | 361 kts | 239° |
| 2026-02-19 13:58 | 48.50845 | 8.64468 | 15201 ft | 364 kts | 249° |
| 2026-02-19 13:58 | 48.50125 | 8.60787 | 15836 ft | 368 kts | 253° |
| 2026-02-19 13:58 | 48.49444 | 8.57046 | 16419 ft | 372 kts | 253° |
| 2026-02-19 13:58 | 48.48747 | 8.53270 | 16993 ft | 376 kts | 251° |
| 2026-02-19 13:59 | 48.47773 | 8.49618 | 17550 ft | 378 kts | 240° |
| 2026-02-19 13:59 | 48.46332 | 8.46289 | 18101 ft | 381 kts | 230° |
| 2026-02-19 13:59 | 48.44482 | 8.43439 | 18616 ft | 382 kts | 219° |
| 2026-02-19 13:59 | 48.42289 | 8.41161 | 19141 ft | 384 kts | 208° |
| 2026-02-19 14:00 | 48.39850 | 8.39515 | 19667 ft | 386 kts | 198° |
| 2026-02-19 14:00 | 48.34604 | 8.37670 | 20717 ft | 390 kts | 192° |
| 2026-02-19 14:00 | 48.31934 | 8.36830 | 21201 ft | 392 kts | 192° |
| 2026-02-19 14:01 | 48.29258 | 8.35984 | 21684 ft | 395 kts | 192° |
| 2026-02-19 14:01 | 48.26559 | 8.35130 | 22157 ft | 397 kts | 192° |
| 2026-02-19 14:01 | 48.23847 | 8.34277 | 22566 ft | 399 kts | 192° |
| 2026-02-19 14:01 | 48.21121 | 8.33420 | 22654 ft | 405 kts | 192° |
| 2026-02-19 14:02 | 48.18303 | 8.32696 | 22657 ft | 415 kts | 185° |
| 2026-02-19 14:02 | 48.15412 | 8.32613 | 22660 ft | 418 kts | 176° |
| 2026-02-19 14:02 | 48.12517 | 8.33184 | 22664 ft | 420 kts | 172° |
| 2026-02-19 14:02 | 48.09629 | 8.33896 | 22660 ft | 422 kts | 172° |
| 2026-02-19 14:03 | 48.06725 | 8.34607 | 22663 ft | 423 kts | 172° |
| 2026-02-19 14:03 | 48.03816 | 8.35319 | 22663 ft | 423 kts | 172° |
| 2026-02-19 14:03 | 48.00910 | 8.36024 | 22660 ft | 423 kts | 172° |
| 2026-02-19 14:03 | 47.98010 | 8.36721 | 22667 ft | 423 kts | 172° |
| 2026-02-19 14:04 | 47.89286 | 8.38823 | 22665 ft | 424 kts | 173° |
| 2026-02-19 14:04 | 47.86374 | 8.39524 | 22661 ft | 424 kts | 172° |
| 2026-02-19 14:05 | 47.83458 | 8.40227 | 22664 ft | 424 kts | 173° |
| 2026-02-19 14:05 | 47.80547 | 8.40931 | 22675 ft | 425 kts | 173° |
| 2026-02-19 14:05 | 47.77625 | 8.41631 | 22673 ft | 425 kts | 172° |
| 2026-02-19 14:05 | 47.74705 | 8.42323 | 22674 ft | 425 kts | 172° |
| 2026-02-19 14:06 | 47.71790 | 8.43016 | 22661 ft | 425 kts | 172° |
| 2026-02-19 14:06 | 47.68864 | 8.43707 | 22645 ft | 426 kts | 173° |
| 2026-02-19 14:06 | 47.65930 | 8.44297 | 22640 ft | 426 kts | 174° |
| 2026-02-19 14:06 | 47.62980 | 8.44766 | 22642 ft | 427 kts | 175° |
| 2026-02-19 14:07 | 47.60015 | 8.45165 | 22645 ft | 428 kts | 176° |
| 2026-02-19 14:07 | 47.57042 | 8.45538 | 22650 ft | 429 kts | 176° |
| 2026-02-19 14:07 | 47.54066 | 8.45919 | 22652 ft | 429 kts | 176° |
| 2026-02-19 14:07 | 47.51096 | 8.46317 | 22655 ft | 429 kts | 176° |
| 2026-02-19 14:08 | 47.48117 | 8.46734 | 22652 ft | 430 kts | 176° |
| 2026-02-19 14:08 | 47.42154 | 8.47610 | 22648 ft | 431 kts | 175° |
| 2026-02-19 14:08 | 47.39169 | 8.48054 | 22650 ft | 432 kts | 175° |
| 2026-02-19 14:09 | 47.36174 | 8.48500 | 22652 ft | 433 kts | 175° |
| 2026-02-19 14:09 | 47.33176 | 8.48948 | 22650 ft | 433 kts | 175° |
| 2026-02-19 14:09 | 47.30178 | 8.49393 | 22658 ft | 433 kts | 175° |
| 2026-02-19 14:09 | 47.27173 | 8.49834 | 22648 ft | 434 kts | 176° |
| 2026-02-19 14:10 | 47.24206 | 8.50267 | 22651 ft | 434 kts | 176° |
| 2026-02-19 14:10 | 47.21162 | 8.50705 | 22648 ft | 435 kts | 176° |
| 2026-02-19 14:10 | 47.18146 | 8.51140 | 22649 ft | 435 kts | 176° |
| 2026-02-19 14:10 | 47.15170 | 8.51571 | 22656 ft | 436 kts | 176° |
| 2026-02-19 14:11 | 47.13135 | 8.51867 | 22657 ft | 436 kts | 176° |
| 2026-02-19 14:11 | 47.09134 | 8.52450 | 22670 ft | 437 kts | 176° |
| 2026-02-19 14:11 | 47.06108 | 8.52890 | 22670 ft | 437 kts | 176° |
| 2026-02-19 14:11 | 47.03043 | 8.53333 | 22654 ft | 437 kts | 176° |
| 2026-02-19 14:12 | 47.00052 | 8.53764 | 22648 ft | 438 kts | 176° |
| 2026-02-19 14:12 | 46.93985 | 8.54628 | 22660 ft | 439 kts | 176° |
| 2026-02-19 14:12 | 46.90943 | 8.55068 | 22669 ft | 439 kts | 176° |
| 2026-02-19 14:13 | 46.87899 | 8.55513 | 22669 ft | 439 kts | 176° |
| 2026-02-19 14:13 | 46.84859 | 8.55956 | 22659 ft | 440 kts | 177° |
| 2026-02-19 14:13 | 46.82795 | 8.56255 | 22680 ft | 443 kts | 176° |
| 2026-02-19 14:13 | 46.79721 | 8.56698 | 22683 ft | 444 kts | 177° |
| 2026-02-19 14:14 | 46.76646 | 8.57138 | 22692 ft | 444 kts | 175° |
| 2026-02-19 14:14 | 46.73582 | 8.57572 | 22685 ft | 441 kts | 175° |
| 2026-02-19 14:14 | 46.70528 | 8.58003 | 22676 ft | 441 kts | 175° |
| 2026-02-19 14:14 | 46.67483 | 8.58435 | 22681 ft | 441 kts | 175° |
| 2026-02-19 14:15 | 46.64427 | 8.58870 | 22664 ft | 441 kts | 176° |
| 2026-02-19 14:15 | 46.61373 | 8.59303 | 22672 ft | 441 kts | 176° |
| 2026-02-19 14:15 | 46.58320 | 8.59737 | 22667 ft | 442 kts | 175° |
| 2026-02-19 14:15 | 46.55259 | 8.60177 | 22676 ft | 442 kts | 175° |
| 2026-02-19 14:16 | 46.52199 | 8.60617 | 22672 ft | 441 kts | 175° |
| 2026-02-19 14:16 | 46.46090 | 8.61482 | 22642 ft | 442 kts | 176° |
| 2026-02-19 14:16 | 46.43031 | 8.61914 | 22642 ft | 441 kts | 175° |
| 2026-02-19 14:17 | 46.39972 | 8.62348 | 22627 ft | 442 kts | 175° |
| 2026-02-19 14:17 | 46.36914 | 8.62777 | 22646 ft | 441 kts | 176° |
| 2026-02-19 14:17 | 46.33856 | 8.63204 | 22647 ft | 442 kts | 176° |
| 2026-02-19 14:17 | 46.30797 | 8.63632 | 22643 ft | 441 kts | 176° |
| 2026-02-19 14:18 | 46.27740 | 8.64060 | 22623 ft | 441 kts | 176° |
| 2026-02-19 14:18 | 46.24690 | 8.64484 | 22640 ft | 441 kts | 175° |
| 2026-02-19 14:18 | 46.21627 | 8.64911 | 22626 ft | 442 kts | 175° |
| 2026-02-19 14:18 | 46.18566 | 8.65341 | 22620 ft | 442 kts | 175° |
| 2026-02-19 14:19 | 46.15513 | 8.65915 | 22622 ft | 444 kts | 170° |
| 2026-02-19 14:19 | 46.12548 | 8.67165 | 22617 ft | 445 kts | 159° |
| 2026-02-19 14:19 | 46.09767 | 8.69128 | 22628 ft | 446 kts | 149° |
| 2026-02-19 14:19 | 46.07257 | 8.71744 | 22629 ft | 447 kts | 139° |
| 2026-02-19 14:20 | 46.00846 | 8.81519 | 22648 ft | 448 kts | 133° |
| 2026-02-19 14:20 | 45.98730 | 8.84816 | 22649 ft | 448 kts | 133° |
| 2026-02-19 14:21 | 45.96618 | 8.88097 | 22641 ft | 448 kts | 133° |
| 2026-02-19 14:21 | 45.94526 | 8.91340 | 22651 ft | 448 kts | 133° |
| 2026-02-19 14:21 | 45.92378 | 8.94666 | 22652 ft | 448 kts | 133° |
| 2026-02-19 14:21 | 45.90291 | 8.97901 | 22650 ft | 448 kts | 133° |
| 2026-02-19 14:22 | 45.88174 | 9.01186 | 22646 ft | 448 kts | 133° |
| 2026-02-19 14:22 | 45.86035 | 9.04507 | 22643 ft | 448 kts | 133° |
| 2026-02-19 14:22 | 45.83917 | 9.07789 | 22632 ft | 448 kts | 133° |
| 2026-02-19 14:22 | 45.81828 | 9.11019 | 22653 ft | 448 kts | 133° |
| 2026-02-19 14:23 | 45.79711 | 9.14283 | 22421 ft | 445 kts | 133° |
| 2026-02-19 14:23 | 45.77605 | 9.17520 | 21537 ft | 443 kts | 133° |
| 2026-02-19 14:23 | 45.75516 | 9.20727 | 20880 ft | 438 kts | 133° |
| 2026-02-19 14:23 | 45.73447 | 9.23900 | 20213 ft | 434 kts | 132° |
| 2026-02-19 14:24 | 45.71372 | 9.27086 | 19551 ft | 430 kts | 132° |
| 2026-02-19 14:24 | 45.67319 | 9.33302 | 18330 ft | 424 kts | 132° |
| 2026-02-19 14:24 | 45.65314 | 9.36374 | 17724 ft | 422 kts | 131° |
| 2026-02-19 14:25 | 45.63319 | 9.39423 | 17258 ft | 418 kts | 132° |
| 2026-02-19 14:25 | 45.61338 | 9.42437 | 16732 ft | 414 kts | 132° |
| 2026-02-19 14:25 | 45.59347 | 9.45380 | 16193 ft | 410 kts | 136° |
| 2026-02-19 14:25 | 45.57101 | 9.47859 | 15671 ft | 407 kts | 147° |
| 2026-02-19 14:26 | 45.54598 | 9.49706 | 15183 ft | 404 kts | 158° |
| 2026-02-19 14:26 | 45.51936 | 9.50885 | 14664 ft | 400 kts | 169° |
| 2026-02-19 14:26 | 45.49194 | 9.51385 | 14133 ft | 396 kts | 178° |
| 2026-02-19 14:26 | 45.46449 | 9.51653 | 13589 ft | 395 kts | 178° |
| 2026-02-19 14:27 | 45.43709 | 9.51931 | 12983 ft | 393 kts | 178° |
| 2026-02-19 14:27 | 45.41023 | 9.52211 | 12392 ft | 391 kts | 178° |
| 2026-02-19 14:27 | 45.38285 | 9.52498 | 11784 ft | 389 kts | 178° |
| 2026-02-19 14:27 | 45.35626 | 9.52775 | 11163 ft | 387 kts | 178° |
| 2026-02-19 14:28 | 45.32952 | 9.53052 | 10639 ft | 382 kts | 178° |
| 2026-02-19 14:28 | 45.27852 | 9.53591 | 10367 ft | 353 kts | 178° |
| 2026-02-19 14:28 | 45.25454 | 9.53608 | 10228 ft | 337 kts | 190° |
| 2026-02-19 14:29 | 45.23240 | 9.52869 | 10097 ft | 320 kts | 205° |
| 2026-02-19 14:29 | 45.21300 | 9.51504 | 9887 ft | 305 kts | 218° |
| 2026-02-19 14:29 | 45.19695 | 9.49641 | 9774 ft | 294 kts | 232° |
| 2026-02-19 14:29 | 45.18311 | 9.47520 | 9666 ft | 293 kts | 231° |
| 2026-02-19 14:30 | 45.16929 | 9.45417 | 9421 ft | 292 kts | 231° |
| 2026-02-19 14:30 | 45.15536 | 9.43306 | 8996 ft | 291 kts | 231° |
| 2026-02-19 14:30 | 45.14166 | 9.41237 | 8546 ft | 285 kts | 231° |
| 2026-02-19 14:30 | 45.12816 | 9.39195 | 7870 ft | 282 kts | 230° |
| 2026-02-19 14:31 | 45.11488 | 9.37186 | 7321 ft | 276 kts | 230° |
| 2026-02-19 14:31 | 45.10186 | 9.35219 | 6863 ft | 272 kts | 230° |
| 2026-02-19 14:31 | 45.08897 | 9.33275 | 6730 ft | 271 kts | 230° |
| 2026-02-19 14:31 | 45.07658 | 9.31277 | 6531 ft | 269 kts | 240° |
| 2026-02-19 14:32 | 45.07146 | 9.28827 | 6196 ft | 258 kts | 275° |
| 2026-02-19 14:32 | 45.09217 | 9.25191 | 5542 ft | 257 kts | 345° |
| 2026-02-19 14:32 | 45.10999 | 9.25387 | 5273 ft | 266 kts | 21° |
| 2026-02-19 14:33 | 45.12516 | 9.26841 | 5133 ft | 258 kts | 35° |
| 2026-02-19 14:33 | 45.13932 | 9.28251 | 5067 ft | 240 kts | 25° |
| 2026-02-19 14:33 | 45.15409 | 9.29158 | 5009 ft | 224 kts | 13° |
| 2026-02-19 14:33 | 45.16869 | 9.29660 | 4952 ft | 209 kts | 6° |
| 2026-02-19 14:34 | 45.18248 | 9.29938 | 4917 ft | 192 kts | 2° |
| 2026-02-19 14:34 | 45.19561 | 9.30087 | 4839 ft | 197 kts | 359° |
| 2026-02-19 14:34 | 45.20967 | 9.30133 | 4762 ft | 205 kts | 356° |
| 2026-02-19 14:34 | 45.22396 | 9.30070 | 4686 ft | 206 kts | 353° |
| 2026-02-19 14:35 | 45.23826 | 9.29938 | 4493 ft | 207 kts | 352° |
| 2026-02-19 14:35 | 45.25265 | 9.29778 | 4062 ft | 205 kts | 352° |
| 2026-02-19 14:35 | 45.26636 | 9.29630 | 3755 ft | 191 kts | 352° |
| 2026-02-19 14:35 | 45.27912 | 9.29493 | 3493 ft | 178 kts | 352° |
| 2026-02-19 14:36 | 45.29098 | 9.29366 | 3256 ft | 164 kts | 352° |
| 2026-02-19 14:36 | 45.31233 | 9.29136 | 2846 ft | 147 kts | 352° |
| 2026-02-19 14:36 | 45.32244 | 9.29027 | 2664 ft | 145 kts | 352° |
| 2026-02-19 14:37 | 45.33242 | 9.28919 | 2457 ft | 144 kts | 352° |
| 2026-02-19 14:37 | 45.34242 | 9.28811 | 2254 ft | 144 kts | 352° |
| 2026-02-19 14:37 | 45.35233 | 9.28705 | 2054 ft | 143 kts | 351° |
| 2026-02-19 14:37 | 45.36229 | 9.28597 | 1859 ft | 144 kts | 353° |
| 2026-02-19 14:38 | 45.37233 | 9.28486 | 1665 ft | 146 kts | 351° |
| 2026-02-19 14:38 | 45.38257 | 9.28387 | 1448 ft | 148 kts | 355° |
| 2026-02-19 14:38 | 45.39291 | 9.28335 | 1253 ft | 149 kts | 356° |
| 2026-02-19 14:38 | 45.40323 | 9.28239 | 1026 ft | 148 kts | 352° |
| 2026-02-19 14:39 | 45.41345 | 9.28085 | 835 ft | 147 kts | 352° |
| 2026-02-19 14:39 | 45.42360 | 9.27950 | 587 ft | 146 kts | 351° |
| 2026-02-19 14:39 | 45.43373 | 9.27833 | 424 ft | 146 kts | 351° |
| 2026-02-19 14:39 | 45.44332 | 9.27725 | 356 ft | 119 kts | 356° |
| 2026-02-19 14:40 | 45.44855 | 9.27671 | 360 ft | 34 kts | 355° |
| 2026-02-19 14:40 | 45.45327 | 9.27670 | 362 ft | 33 kts | 25° |
| 2026-02-19 14:40 | 45.45439 | 9.27762 | 363 ft | 7 kts | 44° |
| 2026-02-19 14:41 | 45.45450 | 9.27784 | 362 ft | 0 kts | 60° |
| 2026-02-19 14:42 | 45.45452 | 9.27788 | 363 ft | 2 kts | 56° |
| 2026-02-19 14:42 | 45.45459 | 9.27797 | 364 ft | 3 kts | 39° |
| 2026-02-19 14:42 | 45.45498 | 9.27813 | 362 ft | 9 kts | 8° |
| 2026-02-19 14:43 | 45.45571 | 9.27816 | 363 ft | 10 kts | 1° |
| 2026-02-19 14:43 | 45.45635 | 9.27818 | 363 ft | 8 kts | 1° |
| 2026-02-19 14:43 | 45.45688 | 9.27819 | 363 ft | 7 kts | 0° |
| 2026-02-19 14:43 | 45.45733 | 9.27820 | 363 ft | 6 kts | 1° |
| 2026-02-19 14:44 | 45.45769 | 9.27821 | 363 ft | 5 kts | 0° |
| 2026-02-19 14:44 | 45.45822 | 9.27822 | 365 ft | 3 kts | 1° |
| 2026-02-19 14:44 | 45.45854 | 9.27823 | 363 ft | 7 kts | 1° |
| 2026-02-19 14:45 | 45.45895 | 9.27836 | 363 ft | 6 kts | 31° |
| 2026-02-19 14:45 | 45.45927 | 9.27849 | 363 ft | 4 kts | 5° |
| 2026-02-19 14:45 | 45.45955 | 9.27850 | 363 ft | 4 kts | 1° |
| 2026-02-19 14:45 | 45.45963 | 9.27850 | 363 ft | 1 kts | 1° |
| 2026-02-19 14:46 | 45.45967 | 9.27850 | 365 ft | 1 kts | 0° |
| 2026-02-19 14:46 | 45.45972 | 9.27850 | 367 ft | 0 kts | 0° |